»·PEaware :: UAL312 KSFO-CYVR

UAL312 :: KSFO-CYVR

FLIGHT INFORMATION

Flight Status: Arrived
Operator:
United Airlines
More flights by this operator :: More flights under this callsign
Pilot: Henderson P. (1210)
Aircraft: AIRBUS A320
(A320)
More flights by this aircraft type
Origin: KSFO San Francisco Intl
United States
Destination: CYVR Vancouver Intl
Canada
More flights between these airports :: More routes between these airports
Route: TRUKN2 DEDHD LMT KS03E PAE GRIZZ6
File this flight plan on PilotEdge
Remarks:
Altitude:
(Current/Filed)
38,000ft
Speed:
(Current/Filed)
456kts
Departed: 12-Oct-18 03:29 PM
Arrived: 12-Oct-18 05:21 PM
Distance/Time
Traveled:
696nm/1:51
Distance/Time
To Go:
Arrived

Flight Plot

Page will automatically refresh every two minutes.

Flight plan parsing failed; only flown route is shown


Map Options




Map Legend


Flown Route
Filed Route
Departure Airport
Arrival Airport
Navaid (VOR, NDB)
Fix

Horizontal Profiles

Position Reports

Time Latitude Longitude Heading Altitude Ground
Speed
12-Oct-18 14:40 37.617695 -122.388842 157 27ft 0kts
12-Oct-18 14:41 37.617695 -122.388842 157 27ft 0kts
12-Oct-18 14:42 37.617695 -122.388842 157 27ft 0kts
12-Oct-18 14:43 37.617695 -122.388842 157 27ft 0kts
12-Oct-18 14:44 37.617695 -122.388842 157 27ft 0kts
12-Oct-18 14:45 37.617695 -122.388842 157 27ft 0kts
12-Oct-18 14:46 37.617695 -122.388842 157 27ft 0kts
12-Oct-18 14:47 37.617695 -122.388842 157 27ft 0kts
12-Oct-18 14:48 37.617695 -122.388842 157 27ft 0kts
12-Oct-18 14:49 37.617695 -122.388842 157 27ft 0kts
12-Oct-18 14:50 37.617695 -122.388842 157 27ft 0kts
12-Oct-18 14:51 37.617695 -122.388842 157 27ft 0kts
12-Oct-18 14:52 37.617695 -122.388842 157 27ft 0kts
12-Oct-18 14:53 37.617695 -122.388842 157 27ft 0kts
12-Oct-18 14:54 37.617695 -122.388842 157 27ft 0kts
12-Oct-18 14:55 37.617695 -122.388842 157 27ft 0kts
12-Oct-18 14:56 37.617695 -122.388842 157 27ft 0kts
12-Oct-18 14:57 37.617695 -122.388842 157 27ft 0kts
12-Oct-18 14:58 37.617695 -122.388842 157 27ft 0kts
12-Oct-18 14:59 37.617695 -122.388842 157 27ft 0kts
12-Oct-18 15:00 37.617695 -122.388842 157 27ft 0kts
12-Oct-18 15:01 37.617695 -122.388842 157 27ft 0kts
12-Oct-18 15:02 37.617695 -122.388842 157 27ft 0kts
12-Oct-18 15:03 37.617695 -122.388842 157 27ft 0kts
12-Oct-18 15:04 37.617695 -122.388842 157 27ft 0kts
12-Oct-18 15:05 37.617695 -122.388842 157 27ft 0kts
12-Oct-18 15:06 37.617695 -122.388842 157 27ft 0kts
12-Oct-18 15:07 37.617695 -122.388842 157 27ft 0kts
12-Oct-18 15:08 37.617695 -122.388842 157 27ft 0kts
12-Oct-18 15:09 37.617695 -122.388842 157 27ft 0kts
12-Oct-18 15:10 37.617695 -122.388842 157 27ft 0kts
12-Oct-18 15:11 37.617695 -122.388842 157 27ft 0kts
12-Oct-18 15:12 37.617695 -122.388842 157 27ft 0kts
12-Oct-18 15:13 37.617695 -122.388842 157 27ft 0kts
12-Oct-18 15:14 37.617695 -122.388842 157 27ft 0kts
12-Oct-18 15:15 37.617695 -122.388842 157 27ft 0kts
12-Oct-18 15:16 37.617695 -122.388842 157 27ft 0kts
12-Oct-18 15:17 37.617850 -122.388923 157 27ft 2kts
12-Oct-18 15:18 37.618462 -122.389245 156 27ft 0kts
12-Oct-18 15:19 37.618465 -122.389247 156 27ft 0kts
12-Oct-18 15:20 37.618464 -122.389246 156 27ft 0kts
12-Oct-18 15:21 37.618624 -122.389771 301 27ft 10kts
12-Oct-18 15:22 37.619568 -122.391963 298 27ft 4kts
12-Oct-18 15:23 37.621957 -122.391262 27 27ft 14kts
12-Oct-18 15:24 37.621619 -122.386709 117 27ft 14kts
12-Oct-18 15:25 37.619183 -122.380862 118 27ft 19kts
12-Oct-18 15:26 37.615392 -122.380460 208 27ft 17kts
12-Oct-18 15:27 37.611149 -122.383278 208 27ft 16kts
12-Oct-18 15:28 37.608631 -122.384186 116 27ft 5kts
12-Oct-18 15:29 37.608489 -122.383828 116 27ft 0kts
12-Oct-18 15:30 37.608176 -122.382831 68 27ft 10kts
12-Oct-18 15:31 37.632467 -122.366668 21 480ft 169kts
12-Oct-18 15:32 37.660915 -122.323318 53 3136ft 160kts
12-Oct-18 15:33 37.690691 -122.266392 55 4598ft 227kts
12-Oct-18 15:34 37.740893 -122.209091 5 6678ft 279kts
12-Oct-18 15:35 37.820851 -122.197926 6 9473ft 297kts
12-Oct-18 15:36 37.907123 -122.183522 7 11345ft 343kts
12-Oct-18 15:37 38.009631 -122.166673 8 12598ft 391kts
12-Oct-18 15:38 38.117796 -122.148857 10 14995ft 394kts
12-Oct-18 15:39 38.227573 -122.130668 11 16977ft 402kts
12-Oct-18 15:40 38.339644 -122.112460 9 18796ft 410kts
12-Oct-18 15:41 38.454924 -122.101431 8 20458ft 418kts
12-Oct-18 15:42 38.571675 -122.090140 8 21957ft 425kts
12-Oct-18 15:43 38.690790 -122.078726 8 23340ft 432kts
12-Oct-18 15:44 38.811909 -122.067035 8 24607ft 438kts
12-Oct-18 15:45 38.934462 -122.055145 8 25763ft 445kts
12-Oct-18 15:46 39.058627 -122.043087 8 26882ft 448kts
12-Oct-18 15:47 39.181805 -122.031073 7 28283ft 442kts
12-Oct-18 15:48 39.304254 -122.019108 7 29618ft 438kts
12-Oct-18 15:49 39.425262 -122.007201 7 30828ft 437kts
12-Oct-18 15:50 39.546641 -121.995208 7 31895ft 438kts
12-Oct-18 15:51 39.667635 -121.983239 7 32971ft 436kts
12-Oct-18 15:52 39.788950 -121.971227 6 33900ft 437kts
12-Oct-18 15:53 39.909691 -121.959168 6 34782ft 436kts
12-Oct-18 15:54 40.030966 -121.947051 6 35516ft 437kts
12-Oct-18 15:55 40.152404 -121.934876 6 36106ft 438kts
12-Oct-18 15:56 40.274152 -121.922594 6 36631ft 439kts
12-Oct-18 15:57 40.390599 -121.910836 6 37049ft 440kts
12-Oct-18 15:58 40.512799 -121.898475 6 37377ft 441kts
12-Oct-18 15:59 40.635201 -121.886006 6 37697ft 441kts
12-Oct-18 16:00 40.757924 -121.873424 6 37883ft 443kts
12-Oct-18 16:01 40.881191 -121.860818 5 37961ft 445kts
12-Oct-18 16:02 41.004496 -121.848100 5 37990ft 445kts
12-Oct-18 16:03 41.128348 -121.835324 5 38018ft 445kts
12-Oct-18 16:04 41.251980 -121.822504 4 38046ft 445kts
12-Oct-18 16:05 41.375890 -121.809577 4 38029ft 446kts
12-Oct-18 16:06 41.499836 -121.796649 4 38036ft 446kts
12-Oct-18 16:07 41.623489 -121.783651 4 38040ft 447kts
12-Oct-18 16:08 41.747316 -121.770625 4 38043ft 447kts
12-Oct-18 16:09 41.871329 -121.757507 3 38060ft 447kts
12-Oct-18 16:10 41.995744 -121.744291 3 38077ft 447kts
12-Oct-18 16:11 42.119814 -121.731081 3 38081ft 448kts
12-Oct-18 16:12 42.244105 -121.734232 355 38091ft 447kts
12-Oct-18 16:13 42.368116 -121.744105 356 38118ft 447kts
12-Oct-18 16:14 42.492356 -121.753858 354 38141ft 446kts
12-Oct-18 16:15 42.616320 -121.763394 353 38139ft 445kts
12-Oct-18 16:16 42.739919 -121.773091 353 38114ft 445kts
12-Oct-18 16:17 42.863378 -121.782815 353 38105ft 445kts
12-Oct-18 16:18 42.987014 -121.792570 353 38103ft 444kts
12-Oct-18 16:19 43.110620 -121.802379 353 38102ft 444kts
12-Oct-18 16:20 43.233820 -121.812179 352 38101ft 444kts
12-Oct-18 16:21 43.357517 -121.822052 352 38111ft 444kts
12-Oct-18 16:22 43.480490 -121.831915 352 38112ft 444kts
12-Oct-18 16:23 43.603860 -121.841886 352 38090ft 444kts
12-Oct-18 16:24 43.727174 -121.851801 352 38113ft 443kts
12-Oct-18 16:25 43.850167 -121.861832 352 38084ft 443kts
12-Oct-18 16:26 43.973613 -121.871904 351 38086ft 443kts
12-Oct-18 16:27 44.096482 -121.881955 351 38087ft 443kts
12-Oct-18 16:28 44.219662 -121.892086 351 38091ft 443kts
12-Oct-18 16:29 44.342923 -121.902259 351 38114ft 443kts
12-Oct-18 16:30 44.465899 -121.912462 351 38107ft 443kts
12-Oct-18 16:31 44.589228 -121.922766 351 38110ft 443kts
12-Oct-18 16:32 44.712510 -121.933044 351 38106ft 443kts
12-Oct-18 16:33 44.835580 -121.943403 351 38103ft 442kts
12-Oct-18 16:34 44.957623 -121.953656 351 38107ft 439kts
12-Oct-18 16:35 45.079493 -121.963990 350 38103ft 436kts
12-Oct-18 16:36 45.180457 -121.972586 350 38051ft 436kts
12-Oct-18 16:37 45.321086 -121.984606 350 38036ft 434kts
12-Oct-18 16:38 45.421555 -121.993196 350 38034ft 433kts
12-Oct-18 16:39 45.561678 -122.006303 349 38038ft 432kts
12-Oct-18 16:40 45.681912 -122.020069 349 38069ft 432kts
12-Oct-18 16:41 45.781414 -122.031002 349 38125ft 431kts
12-Oct-18 16:42 45.921071 -122.046574 349 38121ft 429kts
12-Oct-18 16:43 46.020549 -122.057670 349 38061ft 431kts
12-Oct-18 16:44 46.140215 -122.071034 349 38066ft 432kts
12-Oct-18 16:45 46.279906 -122.086827 349 38139ft 431kts
12-Oct-18 16:46 46.379370 -122.098003 349 38157ft 429kts
12-Oct-18 16:47 46.498663 -122.111635 349 38084ft 430kts
12-Oct-18 16:48 46.618024 -122.125216 349 38121ft 429kts
12-Oct-18 16:49 46.736718 -122.138753 348 38163ft 427kts
12-Oct-18 16:50 46.875058 -122.154769 348 38129ft 427kts
12-Oct-18 16:51 46.973928 -122.166149 348 38149ft 428kts
12-Oct-18 16:52 47.086988 -122.179306 348 38203ft 426kts
12-Oct-18 16:53 47.200855 -122.192583 348 38206ft 425kts
12-Oct-18 16:54 47.308670 -122.205219 348 38216ft 423kts
12-Oct-18 16:55 47.426162 -122.219024 348 38216ft 422kts
12-Oct-18 16:56 47.542771 -122.232797 348 37787ft 420kts
12-Oct-18 16:57 47.658255 -122.246495 348 36440ft 414kts
12-Oct-18 16:58 47.772602 -122.260146 348 34202ft 409kts
12-Oct-18 16:59 47.885617 -122.273644 348 31719ft 407kts
12-Oct-18 17:00 47.995766 -122.299468 342 29108ft 399kts
12-Oct-18 17:01 48.104906 -122.331207 343 26085ft 404kts
12-Oct-18 17:02 48.217893 -122.364177 344 24173ft 422kts
12-Oct-18 17:03 48.332830 -122.397589 344 22217ft 414kts
12-Oct-18 17:04 48.442690 -122.429840 344 19273ft 392kts
12-Oct-18 17:05 48.547335 -122.460694 344 16412ft 374kts
12-Oct-18 17:06 48.643785 -122.489098 345 14571ft 315kts
12-Oct-18 17:07 48.715351 -122.518500 321 13960ft 268kts
12-Oct-18 17:08 48.761539 -122.606348 309 12788ft 266kts
12-Oct-18 17:09 48.806586 -122.694407 309 11559ft 264kts
12-Oct-18 17:10 48.852069 -122.783545 309 10990ft 270kts
12-Oct-18 17:11 48.898080 -122.873940 309 10795ft 271kts
12-Oct-18 17:12 48.944621 -122.965258 308 9361ft 264kts
12-Oct-18 17:13 49.003988 -123.001109 3 8138ft 246kts
12-Oct-18 17:14 49.067472 -122.977666 54 6453ft 246kts
12-Oct-18 17:15 49.071659 -122.875065 89 5224ft 243kts
12-Oct-18 17:16 49.111419 -122.818661 5 4248ft 221kts
12-Oct-18 17:17 49.162671 -122.838456 293 3596ft 190kts
12-Oct-18 17:18 49.172942 -122.917458 280 2756ft 189kts
12-Oct-18 17:19 49.181812 -122.995382 280 2174ft 176kts
12-Oct-18 17:20 49.189300 -123.061235 280 1337ft 141kts
12-Oct-18 17:21 49.195604 -123.116708 280 610ft 131kts
12-Oct-18 17:22 49.201609 -123.170525 281 28ft 95kts
12-Oct-18 17:23 49.202463 -123.187020 250 28ft 24kts
12-Oct-18 17:24 49.201378 -123.186527 99 28ft 11kts
12-Oct-18 17:25 49.200693 -123.180461 101 28ft 17kts
12-Oct-18 17:26 49.199804 -123.173915 165 28ft 6kts
12-Oct-18 17:27 49.198410 -123.172150 241 28ft 5kts
12-Oct-18 17:28 49.198178 -123.172835 243 28ft 0kts
12-Oct-18 17:29 49.198178 -123.172835 243 28ft 0kts

Navigation Log

Ident Type
Flight plan parsing failed, navigation log unavailable